^^
Grace C. Lehan Memorial Weather Station Historical Data
Daily Summary for November 12, 2021 Units:  Both    English   Metric
Daily Weekly Monthly Yearly
  High: Low: Average:
Temperature: 65.9 °F /  18.8 °C 45 °F /  7.2 °C 55.1 °F /  12.8 °C
Dew Point: 63.6 °F /  17.6 °C 43.4 °F /  6.3 °C 52.6 °F /  11.4 °C
Humidity: 96% 75% 91%
Wind Speed: 11mph /  17.7km/h - 0.8mph /  1.3km/h
Wind Gust: 23mph /  37km/h - -
Wind- - SSE
Pressure: 30.24 in /  1023.9 hPa 29.77 in /  1008 hPa -
Precipitation: 0.81 in /  20.57 mm    
 
 
Tabular Data for November 12, 2021
Time Temperature Dew Point Pressure Wind Wind Speed Wind Gust Humidity Rainfall Rate (Hourly) solar
00:04 53.3 °F /  11.8 °C 45.6 °F /  7.6 °C 30.24in /  1023.9hPa East 0.3mph /  0.5km/h 4mph /  6.4km/h 75% 0.00in /  0mm 0 W/m2
00:09 53.3 °F /  11.8 °C 45.6 °F /  7.6 °C 30.24in /  1023.9hPa East 0.1mph /  0.2km/h 4mph /  6.4km/h 75% 0.00in /  0mm 0 W/m2
00:14 53.3 °F /  11.8 °C 45.6 °F /  7.6 °C 30.24in /  1023.9hPa Calm   4mph /  6.4km/h 75% 0.00in /  0mm 0 W/m2
00:19 53.3 °F /  11.8 °C 45.6 °F /  7.6 °C 30.23in /  1023.6hPa Calm   4mph /  6.4km/h 75% 0.00in /  0mm 0 W/m2
00:24 53.2 °F /  11.8 °C 45.5 °F /  7.5 °C 30.23in /  1023.6hPa East 0.3mph /  0.5km/h 4mph /  6.4km/h 75% 0.00in /  0mm 0 W/m2
00:29 53.2 °F /  11.8 °C 45.5 °F /  7.5 °C 30.22in /  1023.2hPa East 0.3mph /  0.5km/h 4mph /  6.4km/h 75.1% 0.00in /  0mm 0 W/m2
00:34 53.2 °F /  11.8 °C 45.9 °F /  7.7 °C 30.22in /  1023.2hPa Calm   4mph /  6.4km/h 76.2% 0.00in /  0mm 0 W/m2
00:39 53.2 °F /  11.8 °C 46.2 °F /  7.9 °C 30.22in /  1023.2hPa Calm   1mph /  1.6km/h 77% 0.00in /  0mm 0 W/m2
00:44 53.1 °F /  11.7 °C 46.1 °F /  7.8 °C 30.22in /  1023.2hPa Calm   1mph /  1.6km/h 77% 0.00in /  0mm 0 W/m2
00:49 53 °F /  11.7 °C 46 °F /  7.8 °C 30.22in /  1023.2hPa East 0.1mph /  0.2km/h 1mph /  1.6km/h 77% 0.00in /  0mm 0 W/m2
00:54 53 °F /  11.7 °C 46.1 °F /  7.8 °C 30.22in /  1023.2hPa Calm   1mph /  1.6km/h 77.4% 0.00in /  0mm 0 W/m2
00:59 52.9 °F /  11.6 °C 46.2 °F /  7.9 °C 30.21in /  1022.9hPa Calm   1mph /  1.6km/h 78% 0.00in /  0mm 0 W/m2
01:04 52.9 °F /  11.6 °C 46.3 °F /  7.9 °C 30.22in /  1023.2hPa Calm   1mph /  1.6km/h 78.2% 0.00in /  0mm 0 W/m2
01:09 52.8 °F /  11.6 °C 46.5 °F /  8.1 °C 30.22in /  1023.2hPa Calm     79% 0.00in /  0mm 0 W/m2
01:14 52.8 °F /  11.6 °C 46.6 °F /  8.1 °C 30.22in /  1023.2hPa Calm     79.3% 0.00in /  0mm 0 W/m2
01:19 52.7 °F /  11.5 °C 46.8 °F /  8.2 °C 30.22in /  1023.2hPa Calm     80.1% 0.00in /  0mm 0 W/m2
01:24 52.6 °F /  11.4 °C 47 °F /  8.3 °C 30.22in /  1023.2hPa Calm     81.1% 0.00in /  0mm 0 W/m2
01:29 52.5 °F /  11.4 °C 47.2 °F /  8.4 °C 30.21in /  1022.9hPa Calm     82% 0.00in /  0mm 0 W/m2
01:34 52.4 °F /  11.3 °C 47.3 °F /  8.5 °C 30.21in /  1022.9hPa Calm     82.6% 0.00in /  0mm 0 W/m2
01:39 52.2 °F /  11.2 °C 47.3 °F /  8.5 °C 30.21in /  1022.9hPa East 0.5mph /  0.8km/h 2mph /  3.2km/h 83.2% 0.00in /  0mm 0 W/m2
01:44 52 °F /  11.1 °C 47 °F /  8.3 °C 30.20in /  1022.6hPa East 0.2mph /  0.3km/h 2mph /  3.2km/h 83% 0.00in /  0mm 0 W/m2
01:49 51.8 °F /  11 °C 46.8 °F /  8.2 °C 30.20in /  1022.6hPa East 0.1mph /  0.2km/h 3mph /  4.8km/h 83% 0.00in /  0mm 0 W/m2
01:54 51.7 °F /  10.9 °C 46.7 °F /  8.2 °C 30.20in /  1022.6hPa East 0.5mph /  0.8km/h 3mph /  4.8km/h 83% 0.00in /  0mm 0 W/m2
01:59 51.7 °F /  10.9 °C 46.7 °F /  8.2 °C 30.21in /  1022.9hPa Calm   3mph /  4.8km/h 83% 0.00in /  0mm 0 W/m2
02:04 51.9 °F /  11.1 °C 47.1 °F /  8.4 °C 30.21in /  1022.9hPa Calm   3mph /  4.8km/h 83.8% 0.01in /  0.25mm 0 W/m2
02:09 51.9 °F /  11.1 °C 47.3 °F /  8.5 °C 30.20in /  1022.6hPa Calm   1mph /  1.6km/h 84% 0.01in /  0.25mm 0 W/m2
02:14 52 °F /  11.1 °C 47.6 °F /  8.7 °C 30.19in /  1022.2hPa Calm   1mph /  1.6km/h 85% 0.01in /  0.25mm 0 W/m2
02:19 51.9 °F /  11.1 °C 47.5 °F /  8.6 °C 30.18in /  1021.9hPa Calm   1mph /  1.6km/h 85% 0.01in /  0.25mm 0 W/m2
02:24 51.8 °F /  11 °C 47.6 °F /  8.7 °C 30.18in /  1021.9hPa East 0.1mph /  0.2km/h 1mph /  1.6km/h 85.4% 0.01in /  0.25mm 0 W/m2
02:29 51.7 °F /  10.9 °C 47.7 °F /  8.7 °C 30.19in /  1022.2hPa Calm   1mph /  1.6km/h 86% 0.01in /  0.25mm 0 W/m2
02:34 51.7 °F /  10.9 °C 47.6 °F /  8.7 °C 30.19in /  1022.2hPa Calm   1mph /  1.6km/h 86% 0.01in /  0.25mm 0 W/m2
02:39 51.6 °F /  10.9 °C 47.6 °F /  8.7 °C 30.18in /  1021.9hPa Calm     86.1% 0.02in /  0.51mm 0 W/m2
02:44 51.6 °F /  10.9 °C 47.9 °F /  8.8 °C 30.18in /  1021.9hPa East 0.1mph /  0.2km/h 1mph /  1.6km/h 87% 0.02in /  0.51mm 0 W/m2
02:49 51.6 °F /  10.9 °C 47.8 °F /  8.8 °C 30.17in /  1021.6hPa Calm   1mph /  1.6km/h 87% 0.02in /  0.51mm 0 W/m2
02:54 51.5 °F /  10.8 °C 47.8 °F /  8.8 °C 30.17in /  1021.6hPa Calm   1mph /  1.6km/h 87% 0.02in /  0.51mm 0 W/m2
02:59 51.4 °F /  10.8 °C 47.8 °F /  8.8 °C 30.17in /  1021.6hPa Calm   1mph /  1.6km/h 87.5% 0.02in /  0.51mm 0 W/m2
03:04 51.4 °F /  10.8 °C 47.9 °F /  8.8 °C 30.16in /  1021.2hPa Calm   1mph /  1.6km/h 87.8% 0.02in /  0.51mm 0 W/m2
03:09 51.4 °F /  10.8 °C 48 °F /  8.9 °C 30.17in /  1021.6hPa Calm     88% 0.02in /  0.51mm 0 W/m2
03:14 51.3 °F /  10.7 °C 47.9 °F /  8.8 °C 30.16in /  1021.2hPa Calm     88% 0.02in /  0.51mm 0 W/m2
03:19 51.3 °F /  10.7 °C 47.9 °F /  8.8 °C 30.16in /  1021.2hPa Calm     88% 0.02in /  0.51mm 0 W/m2
03:24 51.3 °F /  10.7 °C 48.1 °F /  8.9 °C 30.16in /  1021.2hPa East 0.1mph /  0.2km/h 2mph /  3.2km/h 88.9% 0.02in /  0.51mm 0 W/m2
03:29 51.3 °F /  10.7 °C 48.1 °F /  8.9 °C 30.16in /  1021.2hPa Calm   2mph /  3.2km/h 89% 0.02in /  0.51mm 0 W/m2
03:34 51.2 °F /  10.7 °C 48.1 °F /  8.9 °C 30.16in /  1021.2hPa East 0.2mph /  0.3km/h 2mph /  3.2km/h 89% 0.02in /  0.51mm 0 W/m2
03:39 51.1 °F /  10.6 °C 48 °F /  8.9 °C 30.15in /  1020.9hPa East 0.1mph /  0.2km/h 2mph /  3.2km/h 89% 0.01in /  0.25mm 0 W/m2
03:44 51 °F /  10.6 °C 47.9 °F /  8.8 °C 30.15in /  1020.9hPa Calm   2mph /  3.2km/h 89% 0.01in /  0.25mm 0 W/m2
03:49 51 °F /  10.6 °C 47.9 °F /  8.8 °C 30.15in /  1020.9hPa Calm   2mph /  3.2km/h 89% 0.01in /  0.25mm 0 W/m2
03:54 51 °F /  10.6 °C 47.9 °F /  8.8 °C 30.15in /  1020.9hPa ENE 0.2mph /  0.3km/h 3mph /  4.8km/h 89% 0.01in /  0.25mm 0 W/m2
03:59 51 °F /  10.6 °C 47.9 °F /  8.8 °C 30.15in /  1020.9hPa Calm   3mph /  4.8km/h 89% 0.01in /  0.25mm 0 W/m2
04:00 51 °F /  10.6 °C 47.9 °F /  8.8 °C 30.14in /  1020.5hPa Calm   3mph /  4.8km/h 89% 0.01in /  0.25mm 0 W/m2
04:09 51 °F /  10.6 °C 47.9 °F /  8.8 °C 30.14in /  1020.5hPa Calm   1mph /  1.6km/h 89% 0.01in /  0.25mm 0 W/m2
04:14 51 °F /  10.6 °C 47.9 °F /  8.8 °C 30.14in /  1020.5hPa Calm   1mph /  1.6km/h 89% 0.01in /  0.25mm 0 W/m2
04:19 51 °F /  10.6 °C 47.9 °F /  8.8 °C 30.14in /  1020.5hPa NE 0.2mph /  0.3km/h 2mph /  3.2km/h 89% 0.01in /  0.25mm 0 W/m2
04:24 51.1 °F /  10.6 °C 47.9 °F /  8.8 °C 30.12in /  1019.9hPa Calm   2mph /  3.2km/h 89% 0.01in /  0.25mm 0 W/m2
04:29 51.1 °F /  10.6 °C 48 °F /  8.9 °C 30.12in /  1019.9hPa Calm   2mph /  3.2km/h 89% 0.01in /  0.25mm 0 W/m2
04:34 51.1 °F /  10.6 °C 48 °F /  8.9 °C 30.12in /  1019.9hPa Calm   2mph /  3.2km/h 89% 0.01in /  0.25mm 0 W/m2
04:39 51.1 °F /  10.6 °C 48 °F /  8.9 °C 30.11in /  1019.5hPa Calm     89% 0.00in /  0mm 0 W/m2
04:44 51.2 °F /  10.7 °C 48.1 °F /  8.9 °C 30.11in /  1019.5hPa NE 0.1mph /  0.2km/h 2mph /  3.2km/h 89.3% 0.00in /  0mm 0 W/m2
04:49 51.2 °F /  10.7 °C 48.4 °F /  9.1 °C 30.11in /  1019.5hPa NE 0.4mph /  0.6km/h 3mph /  4.8km/h 90% 0.00in /  0mm 0 W/m2
04:54 51.2 °F /  10.7 °C 48.4 °F /  9.1 °C 30.11in /  1019.5hPa NE 0.2mph /  0.3km/h 3mph /  4.8km/h 90% 0.00in /  0mm 0 W/m2
04:59 51.2 °F /  10.7 °C 48.4 °F /  9.1 °C 30.10in /  1019.2hPa NNE 0.2mph /  0.3km/h 3mph /  4.8km/h 90% 0.00in /  0mm 0 W/m2
05:04 51.2 °F /  10.7 °C 48.4 °F /  9.1 °C 30.10in /  1019.2hPa NNE 0.2mph /  0.3km/h 3mph /  4.8km/h 90% 0.00in /  0mm 0 W/m2
05:09 51.3 °F /  10.7 °C 48.5 °F /  9.2 °C 30.10in /  1019.2hPa NNE 0.2mph /  0.3km/h 2mph /  3.2km/h 90% 0.00in /  0mm 0 W/m2
05:14 51.3 °F /  10.7 °C 48.5 °F /  9.2 °C 30.09in /  1018.8hPa NNE 0.3mph /  0.5km/h 2mph /  3.2km/h 90% 0.00in /  0mm 0 W/m2
05:19 51.4 °F /  10.8 °C 48.6 °F /  9.2 °C 30.08in /  1018.5hPa Calm   2mph /  3.2km/h 90% 0.00in /  0mm 0 W/m2
05:24 51.5 °F /  10.8 °C 48.7 °F /  9.3 °C 30.08in /  1018.5hPa NNE 0.1mph /  0.2km/h 2mph /  3.2km/h 90% 0.00in /  0mm 0 W/m2
05:29 51.6 °F /  10.9 °C 48.8 °F /  9.3 °C 30.07in /  1018.2hPa NNE 0.1mph /  0.2km/h 2mph /  3.2km/h 90% 0.00in /  0mm 0 W/m2
05:34 51.7 °F /  10.9 °C 49.2 °F /  9.6 °C 30.07in /  1018.2hPa Calm   2mph /  3.2km/h 91% 0.00in /  0mm 0 W/m2
05:39 51.8 °F /  11 °C 49.3 °F /  9.6 °C 30.08in /  1018.5hPa Calm     91% 0.00in /  0mm 0 W/m2
05:44 52.1 °F /  11.2 °C 49.5 °F /  9.7 °C 30.08in /  1018.5hPa NE 0.8mph /  1.3km/h 5mph /  8km/h 91% 0.07in /  1.78mm 0 W/m2
05:49 52.4 °F /  11.3 °C 49.9 °F /  9.9 °C 30.07in /  1018.2hPa Calm   5mph /  8km/h 91.2% 0.07in /  1.78mm 0 W/m2
05:54 52.6 °F /  11.4 °C 50.3 °F /  10.2 °C 30.07in /  1018.2hPa Calm   5mph /  8km/h 92% 0.09in /  2.29mm 0 W/m2
05:59 52.7 °F /  11.5 °C 50.5 °F /  10.3 °C 30.07in /  1018.2hPa Calm   5mph /  8km/h 92% 0.09in /  2.29mm 0 W/m2
06:04 52.8 °F /  11.6 °C 50.5 °F /  10.3 °C 30.07in /  1018.2hPa Calm   5mph /  8km/h 92% 0.09in /  2.29mm 0 W/m2
06:09 52.8 °F /  11.6 °C 50.6 °F /  10.3 °C 30.07in /  1018.2hPa North 1.1mph /  1.8km/h 7mph /  11.3km/h 92% 0.09in /  2.29mm 0 W/m2
06:14 53 °F /  11.7 °C 50.7 °F /  10.4 °C 30.07in /  1018.2hPa West 1.2mph /  1.9km/h 7mph /  11.3km/h 92% 0.09in /  2.29mm 0 W/m2
06:19 53 °F /  11.7 °C 50.7 °F /  10.4 °C 30.07in /  1018.2hPa Calm   7mph /  11.3km/h 92% 0.10in /  2.54mm 0 W/m2
06:24 52.8 °F /  11.6 °C 50.6 °F /  10.3 °C 30.07in /  1018.2hPa Calm   7mph /  11.3km/h 92% 0.10in /  2.54mm 0 W/m2
06:29 52.8 °F /  11.6 °C 50.6 °F /  10.3 °C 30.07in /  1018.2hPa Calm   7mph /  11.3km/h 92.1% 0.10in /  2.54mm 0 W/m2
06:34 52.8 °F /  11.6 °C 50.8 °F /  10.4 °C 30.06in /  1017.8hPa Calm   7mph /  11.3km/h 93% 0.10in /  2.54mm 0 W/m2
06:39 52.8 °F /  11.6 °C 50.8 °F /  10.4 °C 30.05in /  1017.5hPa Calm     93% 0.10in /  2.54mm 0 W/m2
06:44 52.8 °F /  11.6 °C 50.8 °F /  10.4 °C 30.05in /  1017.5hPa Calm     93% 0.10in /  2.54mm 0 W/m2
06:49 52.9 °F /  11.6 °C 50.9 °F /  10.5 °C 30.05in /  1017.5hPa Calm     93% 0.10in /  2.54mm 0 W/m2
06:54 53 °F /  11.7 °C 51 °F /  10.6 °C 30.05in /  1017.5hPa North 0.5mph /  0.8km/h 3mph /  4.8km/h 93% 0.10in /  2.54mm 0 W/m2
06:59 53.1 °F /  11.7 °C 51.1 °F /  10.6 °C 30.04in /  1017.2hPa Calm   3mph /  4.8km/h 93.1% 0.10in /  2.54mm 0 W/m2
07:04 53.1 °F /  11.7 °C 51.5 °F /  10.8 °C 30.04in /  1017.2hPa Calm   3mph /  4.8km/h 94% 0.10in /  2.54mm 0 W/m2
07:09 53.2 °F /  11.8 °C 51.5 °F /  10.8 °C 30.04in /  1017.2hPa Calm     94% 0.01in /  0.25mm 0 W/m2
07:14 53.2 °F /  11.8 °C 51.5 °F /  10.8 °C 30.03in /  1016.8hPa Calm     94% 0.01in /  0.25mm 0 W/m2
07:19 53.2 °F /  11.8 °C 51.5 °F /  10.8 °C 30.03in /  1016.8hPa Calm     94% 0.01in /  0.25mm 0 W/m2
07:24 53.3 °F /  11.8 °C 51.6 °F /  10.9 °C 30.03in /  1016.8hPa Calm     94% 0.01in /  0.25mm 0 W/m2
07:29 53.3 °F /  11.8 °C 51.6 °F /  10.9 °C 30.03in /  1016.8hPa Calm     94% 0.01in /  0.25mm 0 W/m2
07:34 53.3 °F /  11.8 °C 51.6 °F /  10.9 °C 30.03in /  1016.8hPa NNE 0.2mph /  0.3km/h 3mph /  4.8km/h 94% 0.01in /  0.25mm 5 W/m2
07:39 53.4 °F /  11.9 °C 51.7 °F /  10.9 °C 30.02in /  1016.5hPa Calm   3mph /  4.8km/h 94% 0.00in /  0mm 7 W/m2
07:44 53.5 °F /  11.9 °C 51.8 °F /  11 °C 30.02in /  1016.5hPa Calm   3mph /  4.8km/h 94% 0.00in /  0mm 9 W/m2
07:49 53.6 °F /  12 °C 52 °F /  11.1 °C 30.02in /  1016.5hPa ESE 0.3mph /  0.5km/h 5mph /  8km/h 94.2% 0.00in /  0mm 11 W/m2
07:54 54.4 °F /  12.4 °C 53 °F /  11.7 °C 30.01in /  1016.1hPa ESE 0.5mph /  0.8km/h 5mph /  8km/h 95% 0.00in /  0mm 11 W/m2
07:59 56 °F /  13.3 °C 54.8 °F /  12.7 °C 30.01in /  1016.1hPa ESE 0.4mph /  0.6km/h 5mph /  8km/h 95.7% 0.00in /  0mm 5 W/m2
08:00 56.8 °F /  13.8 °C 55.7 °F /  13.2 °C 30.01in /  1016.1hPa Calm   5mph /  8km/h 96% 0.00in /  0mm 5 W/m2
08:09 58.5 °F /  14.7 °C 57.4 °F /  14.1 °C 30.00in /  1015.8hPa SE 1.2mph /  1.9km/h 6mph /  9.7km/h 96% 0.00in /  0mm 16 W/m2
08:14 58.9 °F /  14.9 °C 57.8 °F /  14.3 °C 30.00in /  1015.8hPa SE 1mph /  1.6km/h 6mph /  9.7km/h 96% 0.00in /  0mm 18 W/m2
08:19 59.3 °F /  15.2 °C 58.1 °F /  14.5 °C 30.00in /  1015.8hPa SSE 1.4mph /  2.3km/h 6mph /  9.7km/h 96% 0.00in /  0mm 26 W/m2
08:24 59.6 °F /  15.3 °C 58.4 °F /  14.7 °C 30.00in /  1015.8hPa SSE 0.7mph /  1.1km/h 6mph /  9.7km/h 96% 0.00in /  0mm 44 W/m2
08:29 59.9 °F /  15.5 °C 58.8 °F /  14.9 °C 29.98in /  1015.1hPa SE 2.8mph /  4.5km/h 9mph /  14.5km/h 96% 0.00in /  0mm 51 W/m2
08:34 60.2 °F /  15.7 °C 59.1 °F /  15.1 °C 29.98in /  1015.1hPa SE 1.5mph /  2.4km/h 9mph /  14.5km/h 95.8% 0.00in /  0mm 49 W/m2
08:39 60.6 °F /  15.9 °C 59.3 °F /  15.2 °C 29.97in /  1014.8hPa SE 2mph /  3.2km/h 12mph /  19.3km/h 95.7% 0.00in /  0mm 70 W/m2
08:44 60.9 °F /  16.1 °C 59.4 °F /  15.2 °C 29.97in /  1014.8hPa SE 2mph /  3.2km/h 12mph /  19.3km/h 95% 0.00in /  0mm 70 W/m2
08:49 61.2 °F /  16.2 °C 59.7 °F /  15.4 °C 29.96in /  1014.4hPa SE 2.4mph /  3.9km/h 12mph /  19.3km/h 95% 0.00in /  0mm 70 W/m2
08:54 61.5 °F /  16.4 °C 59.9 °F /  15.5 °C 29.96in /  1014.4hPa SSE 2.1mph /  3.4km/h 12mph /  19.3km/h 94.6% 0.00in /  0mm 56 W/m2
08:59 61.8 °F /  16.6 °C 60.1 °F /  15.6 °C 29.95in /  1014.1hPa SE 3.1mph /  5km/h 12mph /  19.3km/h 94% 0.00in /  0mm 128 W/m2
09:04 62.1 °F /  16.7 °C 60.4 °F /  15.8 °C 29.94in /  1013.8hPa SE 1.6mph /  2.6km/h 14mph /  22.5km/h 94% 0.00in /  0mm 128 W/m2
09:09 62.5 °F /  16.9 °C 60.4 °F /  15.8 °C 29.94in /  1013.8hPa SE 1.8mph /  2.9km/h 14mph /  22.5km/h 93.1% 0.00in /  0mm 62 W/m2
09:14 62.6 °F /  17 °C 60.6 °F /  15.9 °C 29.93in /  1013.4hPa SSE 1.7mph /  2.7km/h 14mph /  22.5km/h 93% 0.00in /  0mm 69 W/m2
09:19 62.9 °F /  17.2 °C 60.8 °F /  16 °C 29.93in /  1013.4hPa SSE 1.7mph /  2.7km/h 14mph /  22.5km/h 93% 0.00in /  0mm 58 W/m2
09:24 63 °F /  17.2 °C 61 °F /  16.1 °C 29.93in /  1013.4hPa SSE 1.7mph /  2.7km/h 14mph /  22.5km/h 93% 0.00in /  0mm 72 W/m2
09:29 63.1 °F /  17.3 °C 61.1 °F /  16.2 °C 29.93in /  1013.4hPa SSE 2.2mph /  3.5km/h 14mph /  22.5km/h 93% 0.00in /  0mm 69 W/m2
09:34 63.2 °F /  17.3 °C 61.1 °F /  16.2 °C 29.93in /  1013.4hPa SSE 2.3mph /  3.7km/h 14mph /  22.5km/h 93% 0.00in /  0mm 69 W/m2
09:39 63.3 °F /  17.4 °C 61.2 °F /  16.2 °C 29.94in /  1013.8hPa SSE 3.4mph /  5.5km/h 13mph /  20.9km/h 93% 0.02in /  0.51mm 32 W/m2
09:44 63.3 °F /  17.4 °C 61.3 °F /  16.3 °C 29.94in /  1013.8hPa South 2.8mph /  4.5km/h 13mph /  20.9km/h 93% 0.06in /  1.52mm 18 W/m2
09:49 63.2 °F /  17.3 °C 61.2 °F /  16.2 °C 29.95in /  1014.1hPa South 2.7mph /  4.3km/h 13mph /  20.9km/h 93% 0.07in /  1.78mm 26 W/m2
09:54 63.1 °F /  17.3 °C 61.1 °F /  16.2 °C 29.94in /  1013.8hPa South 1.9mph /  3.1km/h 13mph /  20.9km/h 93% 0.08in /  2.03mm 37 W/m2
09:59 63.1 °F /  17.3 °C 61 °F /  16.1 °C 29.93in /  1013.4hPa South 1mph /  1.6km/h 13mph /  20.9km/h 93% 0.09in /  2.29mm 44 W/m2
10:04 63.1 °F /  17.3 °C 61.2 °F /  16.2 °C 29.93in /  1013.4hPa South 0.9mph /  1.4km/h 13mph /  20.9km/h 93.4% 0.11in /  2.79mm 54 W/m2
10:09 63.1 °F /  17.3 °C 61.3 °F /  16.3 °C 29.92in /  1013.1hPa SSE 0.2mph /  0.3km/h 4mph /  6.4km/h 94% 0.13in /  3.3mm 74 W/m2
10:14 63.1 °F /  17.3 °C 61.3 °F /  16.3 °C 29.91in /  1012.8hPa SSE 0.1mph /  0.2km/h 4mph /  6.4km/h 94% 0.14in /  3.56mm 56 W/m2
10:19 63.1 °F /  17.3 °C 61.3 °F /  16.3 °C 29.90in /  1012.4hPa SSE 0.1mph /  0.2km/h 4mph /  6.4km/h 94% 0.15in /  3.81mm 58 W/m2
10:24 63.1 °F /  17.3 °C 61.3 °F /  16.3 °C 29.89in /  1012.1hPa SE 0.2mph /  0.3km/h 4mph /  6.4km/h 94% 0.15in /  3.81mm 56 W/m2
10:29 63.1 °F /  17.3 °C 61.3 °F /  16.3 °C 29.89in /  1012.1hPa SSE 1.5mph /  2.4km/h 9mph /  14.5km/h 94% 0.16in /  4.06mm 62 W/m2
10:34 63 °F /  17.2 °C 61.3 °F /  16.3 °C 29.89in /  1012.1hPa SE 1.5mph /  2.4km/h 9mph /  14.5km/h 94% 0.19in /  4.83mm 118 W/m2
10:39 63 °F /  17.2 °C 61.3 °F /  16.3 °C 29.88in /  1011.7hPa SE 1.1mph /  1.8km/h 6mph /  9.7km/h 94% 0.19in /  4.83mm 158 W/m2
10:44 63.1 °F /  17.3 °C 61.5 °F /  16.4 °C 29.88in /  1011.7hPa ESE 1.4mph /  2.3km/h 6mph /  9.7km/h 94.3% 0.19in /  4.83mm 290 W/m2
10:49 63.3 °F /  17.4 °C 61.8 °F /  16.6 °C 29.86in /  1011.1hPa SE 0.9mph /  1.4km/h 6mph /  9.7km/h 95% 0.19in /  4.83mm 290 W/m2
10:54 63.4 °F /  17.4 °C 61.9 °F /  16.6 °C 29.85in /  1010.7hPa SE 1.7mph /  2.7km/h 15mph /  24.1km/h 95% 0.19in /  4.83mm 120 W/m2
10:59 63.5 °F /  17.5 °C 62 °F /  16.7 °C 29.85in /  1010.7hPa SSE 2.3mph /  3.7km/h 15mph /  24.1km/h 95% 0.20in /  5.08mm 97 W/m2
11:04 63.6 °F /  17.6 °C 62.2 °F /  16.8 °C 29.84in /  1010.4hPa SE 1.2mph /  1.9km/h 15mph /  24.1km/h 95% 0.20in /  5.08mm 65 W/m2
11:09 63.7 °F /  17.6 °C 62.2 °F /  16.8 °C 29.84in /  1010.4hPa SE 0.8mph /  1.3km/h 8mph /  12.9km/h 95% 0.13in /  3.3mm 83 W/m2
11:14 63.8 °F /  17.7 °C 62.3 °F /  16.8 °C 29.83in /  1010hPa SSE 3.1mph /  5km/h 13mph /  20.9km/h 95% 0.13in /  3.3mm 47 W/m2
11:19 63.9 °F /  17.7 °C 62.5 °F /  16.9 °C 29.82in /  1009.7hPa SSE 3.1mph /  5km/h 13mph /  20.9km/h 95% 0.14in /  3.56mm 51 W/m2
11:24 64.1 °F /  17.8 °C 62.6 °F /  17 °C 29.82in /  1009.7hPa South 5.2mph /  8.4km/h 13mph /  20.9km/h 95% 0.14in /  3.56mm 118 W/m2
11:29 64.4 °F /  18 °C 62.9 °F /  17.2 °C 29.81in /  1009.4hPa SSE 6.6mph /  10.6km/h 14mph /  22.5km/h 95% 0.14in /  3.56mm 144 W/m2
11:34 64.7 °F /  18.2 °C 63.2 °F /  17.3 °C 29.81in /  1009.4hPa South 6.6mph /  10.6km/h 17mph /  27.4km/h 95% 0.14in /  3.56mm 197 W/m2
11:39 65 °F /  18.3 °C 63.5 °F /  17.5 °C 29.80in /  1009hPa South 6.7mph /  10.8km/h 17mph /  27.4km/h 95% 0.07in /  1.78mm 179 W/m2
11:44 65.3 °F /  18.5 °C 63.6 °F /  17.6 °C 29.79in /  1008.7hPa South 6.8mph /  10.9km/h 17mph /  27.4km/h 94.3% 0.07in /  1.78mm 158 W/m2
11:49 65.5 °F /  18.6 °C 63.6 °F /  17.6 °C 29.79in /  1008.7hPa South 8.2mph /  13.2km/h 22mph /  35.4km/h 93.5% 0.07in /  1.78mm 132 W/m2
11:54 65.8 °F /  18.8 °C 63.5 °F /  17.5 °C 29.78in /  1008.4hPa South 4.6mph /  7.4km/h 22mph /  35.4km/h 92.1% 0.07in /  1.78mm 179 W/m2
11:59 65.9 °F /  18.8 °C 63.5 °F /  17.5 °C 29.78in /  1008.4hPa South 5.7mph /  9.2km/h 22mph /  35.4km/h 92% 0.07in /  1.78mm 113 W/m2
12:00 65.9 °F /  18.8 °C 63.5 °F /  17.5 °C 29.78in /  1008.4hPa South 11mph /  17.7km/h 22mph /  35.4km/h 92% 0.07in /  1.78mm 35 W/m2
12:09 65.7 °F /  18.7 °C 63.4 °F /  17.4 °C 29.78in /  1008.4hPa South 5.1mph /  8.2km/h 15mph /  24.1km/h 92.2% 0.06in /  1.52mm 46 W/m2
12:14 65.5 °F /  18.6 °C 63.3 °F /  17.4 °C 29.78in /  1008.4hPa South 4mph /  6.4km/h 15mph /  24.1km/h 92.6% 0.07in /  1.78mm 35 W/m2
12:19 65.2 °F /  18.4 °C 63.2 °F /  17.3 °C 29.79in /  1008.7hPa South 6.3mph /  10.1km/h 17mph /  27.4km/h 93% 0.07in /  1.78mm 51 W/m2
12:24 64.9 °F /  18.3 °C 62.8 °F /  17.1 °C 29.79in /  1008.7hPa South 6.4mph /  10.3km/h 17mph /  27.4km/h 92.6% 0.07in /  1.78mm 51 W/m2
12:29 64.8 °F /  18.2 °C 62.6 °F /  17 °C 29.79in /  1008.7hPa South 4.9mph /  7.9km/h 17mph /  27.4km/h 92.7% 0.08in /  2.03mm 67 W/m2
12:34 64.8 °F /  18.2 °C 62.7 °F /  17.1 °C 29.79in /  1008.7hPa South 3.6mph /  5.8km/h 17mph /  27.4km/h 93% 0.08in /  2.03mm 109 W/m2
12:39 64.8 °F /  18.2 °C 62.7 °F /  17.1 °C 29.79in /  1008.7hPa South 4.4mph /  7.1km/h 23mph /  37km/h 93% 0.06in /  1.52mm 130 W/m2
12:44 64.5 °F /  18.1 °C 62.3 °F /  16.8 °C 29.78in /  1008.4hPa South 2.6mph /  4.2km/h 23mph /  37km/h 92.6% 0.06in /  1.52mm 76 W/m2
12:49 64.4 °F /  18 °C 62 °F /  16.7 °C 29.78in /  1008.4hPa South 3.2mph /  5.1km/h 23mph /  37km/h 92% 0.06in /  1.52mm 62 W/m2
12:54 64.4 °F /  18 °C 62 °F /  16.7 °C 29.78in /  1008.4hPa South 4mph /  6.4km/h 23mph /  37km/h 92% 0.06in /  1.52mm 70 W/m2
12:59 64.3 °F /  17.9 °C 62 °F /  16.7 °C 29.78in /  1008.4hPa South 3.8mph /  6.1km/h 23mph /  37km/h 92% 0.06in /  1.52mm 69 W/m2
13:00 64.3 °F /  17.9 °C 61.9 °F /  16.6 °C 29.77in /  1008hPa South 3mph /  4.8km/h 23mph /  37km/h 92% 0.07in /  1.78mm 73 W/m2
13:30 63.1 °F /  17.3 °C 61.1 °F /  16.2 °C 29.78in /  1008.4hPa South 2mph /  3.2km/h 14mph /  22.5km/h 93% 0.30in /  7.62mm 26 W/m2
14:00 61 °F /  16.1 °C 59.3 °F /  15.2 °C 29.78in /  1008.4hPa WSW 2mph /  3.2km/h 15mph /  24.1km/h 94% 0.37in /  9.4mm 30 W/m2
14:30 60.6 °F /  15.9 °C 58.9 °F /  14.9 °C 29.78in /  1008.4hPa Calm   10mph /  16.1km/h 94% 0.40in /  10.16mm 54 W/m2
15:00 60.4 °F /  15.8 °C 59 °F /  15 °C 29.79in /  1008.7hPa Calm   1mph /  1.6km/h 95% 0.16in /  4.06mm 54 W/m2
15:30 61 °F /  16.1 °C 59.9 °F /  15.5 °C 29.79in /  1008.7hPa Calm     96% 0.05in /  1.27mm 71 W/m2
16:04 60.1 °F /  15.6 °C 58.7 °F /  14.8 °C 29.80in /  1009hPa WSW 0.1mph /  0.2km/h 1mph /  1.6km/h 95.1% 0.05in /  1.27mm 71 W/m2
16:09 59.9 °F /  15.5 °C 58.5 °F /  14.7 °C 29.80in /  1009hPa Calm   1mph /  1.6km/h 95% 0.00in /  0mm 11 W/m2
16:14 59.8 °F /  15.4 °C 58.4 °F /  14.7 °C 29.80in /  1009hPa Calm   1mph /  1.6km/h 95% 0.00in /  0mm 9 W/m2
16:19 59.7 °F /  15.4 °C 58.2 °F /  14.6 °C 29.80in /  1009hPa Calm   1mph /  1.6km/h 95% 0.00in /  0mm 7 W/m2
16:24 59.5 °F /  15.3 °C 58 °F /  14.4 °C 29.80in /  1009hPa Calm   1mph /  1.6km/h 94.8% 0.00in /  0mm 5 W/m2
16:29 59.3 °F /  15.2 °C 57.7 °F /  14.3 °C 29.80in /  1009hPa Calm   1mph /  1.6km/h 94.3% 0.00in /  0mm 5 W/m2
16:34 59.1 °F /  15.1 °C 57.7 °F /  14.3 °C 29.81in /  1009.4hPa Calm   1mph /  1.6km/h 95% 0.00in /  0mm 0 W/m2
16:39 58.9 °F /  14.9 °C 57.4 °F /  14.1 °C 29.81in /  1009.4hPa Calm     94.9% 0.00in /  0mm 0 W/m2
16:44 58.7 °F /  14.8 °C 57 °F /  13.9 °C 29.82in /  1009.7hPa Calm     94% 0.00in /  0mm 0 W/m2
16:49 58.5 °F /  14.7 °C 57 °F /  13.9 °C 29.82in /  1009.7hPa Calm     94.8% 0.00in /  0mm 0 W/m2
16:54 58.4 °F /  14.7 °C 57 °F /  13.9 °C 29.82in /  1009.7hPa Calm     95% 0.00in /  0mm 0 W/m2
16:59 58.3 °F /  14.6 °C 56.8 °F /  13.8 °C 29.82in /  1009.7hPa Calm     95% 0.00in /  0mm 0 W/m2
17:04 58.2 °F /  14.6 °C 56.7 °F /  13.7 °C 29.82in /  1009.7hPa Calm     95% 0.00in /  0mm 0 W/m2
17:09 58 °F /  14.4 °C 56.6 °F /  13.7 °C 29.82in /  1009.7hPa Calm     95% 0.00in /  0mm 0 W/m2
17:14 57.9 °F /  14.4 °C 56.5 °F /  13.6 °C 29.83in /  1010hPa Calm     95% 0.00in /  0mm 0 W/m2
17:19 57.7 °F /  14.3 °C 56.3 °F /  13.5 °C 29.83in /  1010hPa Calm     95% 0.00in /  0mm 0 W/m2
17:24 57.6 °F /  14.2 °C 56.2 °F /  13.4 °C 29.83in /  1010hPa Calm     95% 0.00in /  0mm 0 W/m2
17:29 57.4 °F /  14.1 °C 56 °F /  13.3 °C 29.83in /  1010hPa Calm     95% 0.00in /  0mm 0 W/m2
17:32 57.2 °F /  14 °C 55.8 °F /  13.2 °C 29.83in /  1010hPa Calm     95% 0.00in /  0mm 0 W/m2
18:00 56.4 °F /  13.6 °C 55 °F /  12.8 °C 29.85in /  1010.7hPa Calm   6mph /  9.7km/h 95% 0.00in /  0mm 0 W/m2
18:30 55.3 °F /  12.9 °C 53.9 °F /  12.2 °C 29.87in /  1011.4hPa WNW 1mph /  1.6km/h 5mph /  8km/h 95% 0.00in /  0mm 0 W/m2
19:00 54.3 °F /  12.4 °C 52.9 °F /  11.6 °C 29.88in /  1011.7hPa WNW 1mph /  1.6km/h 5mph /  8km/h 95% 0.00in /  0mm 0 W/m2
19:30 53 °F /  11.7 °C 51.3 °F /  10.7 °C 29.89in /  1012.1hPa Calm   5mph /  8km/h 94% 0.00in /  0mm 0 W/m2
20:04 51.7 °F /  10.9 °C 50 °F /  10 °C 29.90in /  1012.4hPa Calm   5mph /  8km/h 94% 0.00in /  0mm 0 W/m2
20:09 51.5 °F /  10.8 °C 49.8 °F /  9.9 °C 29.90in /  1012.4hPa Calm     94% 0.00in /  0mm 0 W/m2
20:14 51.4 °F /  10.8 °C 49.9 °F /  9.9 °C 29.90in /  1012.4hPa Calm     94.7% 0.00in /  0mm 0 W/m2
20:19 51.2 °F /  10.7 °C 49.9 °F /  9.9 °C 29.90in /  1012.4hPa Calm     95% 0.00in /  0mm 0 W/m2
20:24 51.2 °F /  10.7 °C 49.8 °F /  9.9 °C 29.90in /  1012.4hPa Calm     95% 0.00in /  0mm 0 W/m2
20:29 51.1 °F /  10.6 °C 49.7 °F /  9.8 °C 29.90in /  1012.4hPa WNW 0.2mph /  0.3km/h 3mph /  4.8km/h 95% 0.00in /  0mm 0 W/m2
20:34 51 °F /  10.6 °C 49.5 °F /  9.7 °C 29.91in /  1012.8hPa Calm   3mph /  4.8km/h 94.7% 0.00in /  0mm 0 W/m2
20:39 50.8 °F /  10.4 °C 49.2 °F /  9.6 °C 29.91in /  1012.8hPa Calm     94.1% 0.00in /  0mm 0 W/m2
20:44 50.7 °F /  10.4 °C 49.3 °F /  9.6 °C 29.91in /  1012.8hPa Calm     95% 0.00in /  0mm 0 W/m2
20:49 50.6 °F /  10.3 °C 49.2 °F /  9.6 °C 29.91in /  1012.8hPa Calm     95% 0.00in /  0mm 0 W/m2
20:54 50.4 °F /  10.2 °C 48.9 °F /  9.4 °C 29.91in /  1012.8hPa Calm     94.4% 0.00in /  0mm 0 W/m2
20:59 50.3 °F /  10.2 °C 48.6 °F /  9.2 °C 29.91in /  1012.8hPa Calm     94% 0.00in /  0mm 0 W/m2
21:04 50.1 °F /  10.1 °C 48.4 °F /  9.1 °C 29.91in /  1012.8hPa Calm     94% 0.00in /  0mm 0 W/m2
21:09 49.9 °F /  9.9 °C 48.3 °F /  9.1 °C 29.91in /  1012.8hPa Calm     94% 0.00in /  0mm 0 W/m2
21:14 49.7 °F /  9.8 °C 48.1 °F /  8.9 °C 29.91in /  1012.8hPa Calm     94% 0.00in /  0mm 0 W/m2
21:19 49.6 °F /  9.8 °C 47.9 °F /  8.8 °C 29.91in /  1012.8hPa Calm     94% 0.00in /  0mm 0 W/m2
21:24 49.4 °F /  9.7 °C 47.8 °F /  8.8 °C 29.91in /  1012.8hPa Calm     94% 0.00in /  0mm 0 W/m2
21:29 49.3 °F /  9.6 °C 47.7 °F /  8.7 °C 29.92in /  1013.1hPa Calm     94% 0.00in /  0mm 0 W/m2
21:34 49.2 °F /  9.6 °C 47.5 °F /  8.6 °C 29.92in /  1013.1hPa Calm     94% 0.00in /  0mm 0 W/m2
21:39 49 °F /  9.4 °C 47.4 °F /  8.6 °C 29.92in /  1013.1hPa Calm     94% 0.00in /  0mm 0 W/m2
21:44 48.9 °F /  9.4 °C 47.3 °F /  8.5 °C 29.92in /  1013.1hPa Calm     94% 0.00in /  0mm 0 W/m2
21:49 48.8 °F /  9.3 °C 47.1 °F /  8.4 °C 29.91in /  1012.8hPa Calm     94% 0.00in /  0mm 0 W/m2
21:54 48.6 °F /  9.2 °C 47 °F /  8.3 °C 29.91in /  1012.8hPa Calm     94% 0.00in /  0mm 0 W/m2
21:59 48.5 °F /  9.2 °C 46.8 °F /  8.2 °C 29.91in /  1012.8hPa Calm     94% 0.00in /  0mm 0 W/m2
22:04 48.3 °F /  9.1 °C 46.7 °F /  8.2 °C 29.91in /  1012.8hPa Calm     94% 0.00in /  0mm 0 W/m2
22:09 48.1 °F /  8.9 °C 46.5 °F /  8.1 °C 29.92in /  1013.1hPa Calm     94% 0.00in /  0mm 0 W/m2
22:14 47.9 °F /  8.8 °C 46.3 °F /  7.9 °C 29.92in /  1013.1hPa Calm     94% 0.00in /  0mm 0 W/m2
22:19 47.7 °F /  8.7 °C 46.1 °F /  7.8 °C 29.92in /  1013.1hPa Calm     94% 0.00in /  0mm 0 W/m2
22:24 47.5 °F /  8.6 °C 45.9 °F /  7.7 °C 29.92in /  1013.1hPa Calm     94% 0.00in /  0mm 0 W/m2
22:29 47.3 °F /  8.5 °C 45.7 °F /  7.6 °C 29.92in /  1013.1hPa Calm     94% 0.00in /  0mm 0 W/m2
22:34 47.1 °F /  8.4 °C 45.5 °F /  7.5 °C 29.92in /  1013.1hPa Calm     94% 0.00in /  0mm 0 W/m2
22:39 47 °F /  8.3 °C 45.3 °F /  7.4 °C 29.92in /  1013.1hPa Calm     94% 0.00in /  0mm 0 W/m2
22:44 46.8 °F /  8.2 °C 45.2 °F /  7.3 °C 29.91in /  1012.8hPa Calm     94% 0.00in /  0mm 0 W/m2
22:49 46.7 °F /  8.2 °C 45 °F /  7.2 °C 29.91in /  1012.8hPa Calm     94% 0.00in /  0mm 0 W/m2
22:54 46.5 °F /  8.1 °C 44.9 °F /  7.2 °C 29.91in /  1012.8hPa Calm     94% 0.00in /  0mm 0 W/m2
22:59 46.4 °F /  8 °C 45 °F /  7.2 °C 29.91in /  1012.8hPa Calm     94.6% 0.00in /  0mm 0 W/m2
23:09 46.1 °F /  7.8 °C 44.6 °F /  7 °C 29.90in /  1012.4hPa WNW 0.3mph /  0.5km/h 3mph /  4.8km/h 94.6% 0.00in /  0mm 0 W/m2
23:14 46 °F /  7.8 °C 44.3 °F /  6.8 °C 29.90in /  1012.4hPa Calm   3mph /  4.8km/h 94% 0.00in /  0mm 0 W/m2
23:19 45.9 °F /  7.7 °C 44.4 °F /  6.9 °C 29.90in /  1012.4hPa Calm   3mph /  4.8km/h 94.5% 0.00in /  0mm 0 W/m2
23:24 45.8 °F /  7.7 °C 44.4 °F /  6.9 °C 29.90in /  1012.4hPa WNW 0.3mph /  0.5km/h 3mph /  4.8km/h 95% 0.00in /  0mm 0 W/m2
23:29 45.8 °F /  7.7 °C 44.4 °F /  6.9 °C 29.90in /  1012.4hPa Calm   3mph /  4.8km/h 95% 0.00in /  0mm 0 W/m2
23:34 45.7 °F /  7.6 °C 44.4 °F /  6.9 °C 29.90in /  1012.4hPa Calm   3mph /  4.8km/h 95% 0.00in /  0mm 0 W/m2
23:39 45.7 °F /  7.6 °C 44.3 °F /  6.8 °C 29.90in /  1012.4hPa Calm     95% 0.00in /  0mm 0 W/m2
23:44 45.5 °F /  7.5 °C 44.2 °F /  6.8 °C 29.89in /  1012.1hPa Calm     94.9% 0.00in /  0mm 0 W/m2
23:49 45.4 °F /  7.4 °C 43.7 °F /  6.5 °C 29.89in /  1012.1hPa Calm     94% 0.00in /  0mm 0 W/m2
23:54 45.2 °F /  7.3 °C 43.5 °F /  6.4 °C 29.89in /  1012.1hPa Calm     94% 0.00in /  0mm 0 W/m2
23:59 45 °F /  7.2 °C 43.4 °F /  6.3 °C 29.89in /  1012.1hPa Calm     94% 0.00in /  0mm 0 W/m2
Hartford County Weather
Compliments of Weather Underground - 4 mb